createdAt,value
2019-06-20T00:00:56.812Z,0.00
2019-06-20T00:01:56.798Z,0.00
2019-06-20T00:02:56.797Z,0.00
2019-06-20T00:03:56.768Z,0.00
2019-06-20T00:04:56.756Z,0.00
2019-06-20T00:05:56.751Z,0.00
2019-06-20T00:06:56.750Z,0.00
2019-06-20T00:07:56.770Z,0.00
2019-06-20T00:08:56.730Z,0.00
2019-06-20T00:09:56.744Z,0.00
2019-06-20T00:10:56.720Z,0.00
2019-06-20T00:11:56.689Z,0.00
2019-06-20T00:13:00.581Z,0.00
2019-06-20T00:13:56.743Z,0.00
2019-06-20T00:14:56.674Z,0.00
2019-06-20T00:15:56.659Z,0.00
2019-06-20T00:16:59.411Z,0.00
2019-06-20T00:17:56.630Z,0.00
2019-06-20T00:18:56.665Z,0.00
2019-06-20T00:19:56.614Z,0.00
2019-06-20T00:20:56.648Z,0.00
2019-06-20T00:21:56.582Z,0.00
2019-06-20T00:22:56.585Z,0.00
2019-06-20T00:23:56.560Z,0.00
2019-06-20T00:24:56.557Z,0.00
2019-06-20T00:25:56.550Z,0.00
2019-06-20T00:26:56.527Z,0.00
2019-06-20T00:27:56.536Z,0.00
2019-06-20T00:28:56.571Z,0.00
2019-06-20T00:29:56.496Z,0.00
2019-06-20T00:30:56.485Z,0.00
2019-06-20T00:31:56.480Z,0.00
2019-06-20T00:32:56.475Z,0.00
2019-06-20T00:33:56.453Z,0.00
2019-06-20T00:34:56.442Z,0.00
2019-06-20T00:35:56.437Z,0.00
2019-06-20T00:36:56.425Z,0.00
2019-06-20T00:37:56.441Z,0.00
2019-06-20T00:38:56.401Z,0.00
2019-06-20T00:39:56.383Z,0.00
2019-06-20T00:40:56.380Z,0.00
2019-06-20T00:41:56.368Z,0.00
2019-06-20T00:42:56.364Z,0.00
2019-06-20T00:43:56.353Z,0.00
2019-06-20T00:44:56.335Z,0.00
2019-06-20T00:45:56.348Z,0.00
2019-06-20T00:46:56.330Z,0.00
2019-06-20T00:47:56.312Z,0.00
2019-06-20T00:48:56.296Z,0.00
2019-06-20T00:49:56.273Z,0.00
2019-06-20T00:50:56.268Z,0.00
2019-06-20T00:51:56.257Z,0.00
2019-06-20T00:52:56.286Z,0.00
2019-06-20T00:53:56.238Z,0.00
2019-06-20T00:54:56.239Z,0.00
2019-06-20T00:55:56.227Z,0.00
2019-06-20T00:56:56.213Z,0.00
2019-06-20T00:57:56.206Z,0.00
2019-06-20T00:58:56.195Z,0.00
2019-06-20T00:59:56.174Z,0.00
2019-06-20T01:00:56.167Z,0.00
2019-06-20T01:01:56.151Z,0.00
2019-06-20T01:02:56.161Z,0.00
2019-06-20T01:03:56.130Z,0.00
2019-06-20T01:04:56.126Z,0.00
2019-06-20T01:05:56.107Z,0.00
2019-06-20T01:06:56.158Z,0.00
2019-06-20T01:07:56.123Z,0.00
2019-06-20T01:08:56.093Z,0.00
2019-06-20T01:09:56.082Z,0.00
2019-06-20T01:10:56.061Z,0.00
2019-06-20T01:11:56.050Z,0.00
2019-06-20T01:12:56.071Z,0.00
2019-06-20T01:13:56.034Z,0.00
2019-06-20T01:14:56.019Z,0.00
2019-06-20T01:15:56.006Z,0.00
2019-06-20T01:16:55.991Z,0.00
2019-06-20T01:17:55.997Z,0.00
2019-06-20T01:18:55.974Z,0.00
2019-06-20T01:19:58.241Z,0.00
2019-06-20T01:20:55.967Z,0.00
2019-06-20T01:21:55.945Z,0.00
2019-06-20T01:22:55.959Z,0.00
2019-06-20T01:23:55.920Z,0.00
2019-06-20T01:24:55.921Z,0.00
2019-06-20T01:25:55.895Z,0.00
2019-06-20T01:26:55.888Z,0.00
2019-06-20T01:27:55.903Z,0.00
2019-06-20T01:28:55.872Z,0.00
2019-06-20T01:29:55.900Z,0.00
2019-06-20T01:30:55.846Z,0.00
2019-06-20T01:31:55.839Z,0.00
2019-06-20T01:32:55.846Z,0.00
2019-06-20T01:33:55.819Z,0.00
2019-06-20T01:34:55.800Z,0.00
2019-06-20T01:35:55.820Z,0.00
2019-06-20T01:36:55.777Z,0.00
2019-06-20T01:37:55.785Z,0.00
2019-06-20T01:38:55.793Z,0.00
2019-06-20T01:39:55.819Z,0.00
2019-06-20T01:40:55.748Z,0.00
2019-06-20T01:41:55.750Z,0.00
2019-06-20T01:42:55.721Z,0.00
2019-06-20T01:43:55.716Z,0.00
2019-06-20T01:44:55.702Z,0.00
2019-06-20T01:45:55.740Z,0.00
2019-06-20T01:46:55.680Z,0.00
2019-06-20T01:47:55.703Z,0.00
2019-06-20T01:48:55.674Z,0.00
2019-06-20T01:49:55.648Z,0.00
2019-06-20T01:50:55.641Z,0.00
2019-06-20T01:51:55.662Z,0.00
2019-06-20T01:52:55.613Z,0.00
2019-06-20T01:53:55.615Z,0.00
2019-06-20T01:54:55.600Z,0.00
2019-06-20T01:55:55.582Z,0.00
2019-06-20T01:56:55.569Z,0.00
2019-06-20T01:57:55.557Z,0.00
2019-06-20T01:58:55.563Z,0.00
2019-06-20T01:59:55.554Z,0.00
2019-06-20T02:00:55.537Z,0.00
2019-06-20T02:01:55.519Z,0.00
2019-06-20T02:02:55.518Z,0.00
2019-06-20T02:03:55.507Z,0.00
2019-06-20T02:04:55.489Z,0.00
2019-06-20T02:05:55.485Z,0.00
2019-06-20T02:06:55.464Z,0.00
2019-06-20T02:07:55.446Z,0.00
2019-06-20T02:08:55.456Z,0.00
2019-06-20T02:09:55.435Z,0.00
2019-06-20T02:10:55.420Z,0.00
2019-06-20T02:11:55.417Z,0.00
2019-06-20T02:12:55.433Z,0.00
2019-06-20T02:14:06.842Z,0.00
2019-06-20T02:14:55.389Z,0.00
2019-06-20T02:15:55.372Z,0.00
2019-06-20T02:16:55.357Z,0.00
2019-06-20T02:17:55.342Z,0.00
2019-06-20T02:18:55.347Z,0.00
2019-06-20T02:19:55.327Z,0.00
2019-06-20T02:20:55.308Z,0.00
2019-06-20T02:21:55.315Z,0.00
2019-06-20T02:22:55.380Z,0.00
2019-06-20T02:23:55.292Z,0.00
2019-06-20T02:24:55.277Z,0.00
2019-06-20T02:25:55.269Z,0.00
2019-06-20T02:26:55.268Z,0.00
2019-06-20T02:27:55.252Z,0.00
2019-06-20T02:28:55.236Z,0.00
2019-06-20T02:29:55.231Z,0.00
2019-06-20T02:30:55.211Z,0.00
2019-06-20T02:31:55.202Z,0.00
2019-06-20T02:32:55.189Z,0.00
2019-06-20T02:33:55.195Z,0.00
2019-06-20T02:34:55.185Z,0.00
2019-06-20T02:35:55.151Z,0.00
2019-06-20T02:36:55.148Z,0.00
2019-06-20T02:37:55.132Z,0.00
2019-06-20T02:38:55.147Z,0.00
2019-06-20T02:39:55.121Z,0.00
2019-06-20T02:40:55.128Z,0.00
2019-06-20T02:41:55.091Z,0.00
2019-06-20T02:42:55.098Z,0.00
2019-06-20T02:43:55.080Z,0.00
2019-06-20T02:44:55.084Z,0.00
2019-06-20T02:45:55.047Z,0.00
2019-06-20T02:46:55.049Z,0.00
2019-06-20T02:47:55.024Z,0.00
2019-06-20T02:48:55.052Z,0.00
2019-06-20T02:49:55.010Z,0.00
2019-06-20T02:50:54.991Z,0.00
2019-06-20T02:51:54.989Z,0.00
2019-06-20T02:52:54.995Z,0.00
2019-06-20T02:53:54.978Z,0.00
2019-06-20T02:54:54.965Z,0.00
2019-06-20T02:55:54.938Z,0.00
2019-06-20T02:56:54.930Z,0.00
2019-06-20T02:57:54.933Z,0.00
2019-06-20T02:58:54.915Z,0.00
2019-06-20T02:59:54.905Z,0.00
2019-06-20T03:00:55.592Z,0.00
2019-06-20T03:01:54.875Z,0.00
2019-06-20T03:02:54.878Z,0.00
2019-06-20T03:03:54.863Z,0.00
2019-06-20T03:04:54.855Z,0.00
2019-06-20T03:05:54.842Z,0.00
2019-06-20T03:06:54.839Z,0.00
2019-06-20T03:07:54.814Z,0.00
2019-06-20T03:08:54.845Z,0.00
2019-06-20T03:09:54.796Z,0.00
2019-06-20T03:10:54.787Z,0.00
2019-06-20T03:11:54.766Z,0.00
2019-06-20T03:12:54.766Z,0.00
2019-06-20T03:13:54.758Z,0.00
2019-06-20T03:14:54.754Z,0.00
2019-06-20T03:15:54.769Z,0.00
2019-06-20T03:16:54.722Z,0.00
2019-06-20T03:17:54.719Z,4.00
2019-06-20T03:18:54.708Z,4.00
2019-06-20T03:19:54.711Z,4.00
2019-06-20T03:20:54.676Z,4.00
2019-06-20T03:21:54.660Z,4.00
2019-06-20T03:22:54.652Z,4.00
2019-06-20T03:23:54.638Z,4.00
2019-06-20T03:24:54.645Z,4.00
2019-06-20T03:25:54.639Z,4.00
2019-06-20T03:26:54.613Z,0.00
2019-06-20T03:27:54.607Z,4.00
2019-06-20T03:28:54.598Z,4.00
2019-06-20T03:29:54.593Z,4.00
2019-06-20T03:30:54.589Z,4.00
2019-06-20T03:31:54.558Z,4.00
2019-06-20T03:32:54.552Z,4.00
2019-06-20T03:33:54.535Z,4.00
2019-06-20T03:34:54.535Z,8.00
2019-06-20T03:35:54.516Z,8.00
2019-06-20T03:36:54.502Z,8.00
2019-06-20T03:37:54.497Z,4.00
2019-06-20T03:38:54.499Z,4.00
2019-06-20T03:39:54.494Z,4.00
2019-06-20T03:40:54.471Z,4.00
2019-06-20T03:41:54.454Z,4.00
2019-06-20T03:42:54.436Z,4.00
2019-06-20T03:43:54.502Z,4.00
2019-06-20T03:45:02.224Z,4.00
2019-06-20T03:45:54.409Z,4.00
2019-06-20T03:46:54.398Z,4.00
2019-06-20T03:47:54.385Z,4.00
2019-06-20T03:48:54.381Z,4.00
2019-06-20T03:49:54.387Z,4.00
2019-06-20T03:50:54.360Z,4.00
2019-06-20T03:51:54.341Z,4.00
2019-06-20T03:52:54.351Z,8.00
2019-06-20T03:53:54.317Z,8.00
2019-06-20T03:54:54.324Z,8.00
2019-06-20T03:55:54.306Z,8.00
2019-06-20T03:56:54.322Z,8.00
2019-06-20T03:57:54.273Z,8.00
2019-06-20T03:58:54.272Z,8.00
2019-06-20T03:59:54.266Z,8.00
2019-06-20T04:00:54.249Z,8.00
2019-06-20T04:01:54.237Z,8.00
2019-06-20T04:02:54.223Z,12.00
2019-06-20T04:03:54.219Z,8.00
2019-06-20T04:04:54.219Z,8.00
2019-06-20T04:05:54.193Z,8.00
2019-06-20T04:06:54.183Z,12.00
2019-06-20T04:07:54.175Z,8.00
2019-06-20T04:08:54.180Z,12.00
2019-06-20T04:09:54.164Z,12.00
2019-06-20T04:10:54.143Z,12.00
2019-06-20T04:11:54.127Z,12.00
2019-06-20T04:12:54.131Z,12.00
2019-06-20T04:13:54.107Z,16.00
2019-06-20T04:14:54.109Z,12.00
2019-06-20T04:15:54.090Z,12.00
2019-06-20T04:16:54.090Z,16.00
2019-06-20T04:17:54.073Z,12.00
2019-06-20T04:18:54.068Z,16.00
2019-06-20T04:19:54.073Z,16.00
2019-06-20T04:20:54.065Z,16.00
2019-06-20T04:21:54.040Z,20.00
2019-06-20T04:22:54.013Z,20.00
2019-06-20T04:23:54.001Z,16.00
2019-06-20T04:24:53.996Z,16.00
2019-06-20T04:25:53.982Z,20.00
2019-06-20T04:26:54.021Z,24.00
2019-06-20T04:27:53.952Z,24.00
2019-06-20T04:28:53.946Z,24.00
2019-06-20T04:29:53.944Z,20.00
2019-06-20T04:30:53.936Z,20.00
2019-06-20T04:31:53.932Z,24.00
2019-06-20T04:32:53.915Z,24.00
2019-06-20T04:33:53.892Z,24.00
2019-06-20T04:34:53.884Z,24.00
2019-06-20T04:35:53.869Z,24.00
2019-06-20T04:36:53.866Z,32.00
2019-06-20T04:37:53.856Z,32.00
2019-06-20T04:38:53.852Z,32.00
2019-06-20T04:39:53.827Z,36.00
2019-06-20T04:40:53.838Z,36.00
2019-06-20T04:41:53.810Z,32.00
2019-06-20T04:42:53.810Z,32.00
2019-06-20T04:43:53.789Z,36.00
2019-06-20T04:44:53.777Z,40.00
2019-06-20T04:45:53.790Z,44.00
2019-06-20T04:46:53.782Z,44.00
2019-06-20T04:47:53.745Z,44.00
2019-06-20T04:48:53.735Z,48.00
2019-06-20T04:49:53.723Z,56.00
2019-06-20T04:50:53.721Z,56.00
2019-06-20T04:51:53.699Z,60.00
2019-06-20T04:52:53.700Z,64.00
2019-06-20T04:53:55.705Z,64.00
2019-06-20T04:54:53.684Z,68.00
2019-06-20T04:55:53.670Z,68.00
2019-06-20T04:56:53.659Z,68.00
2019-06-20T04:57:53.658Z,64.00
2019-06-20T04:58:53.627Z,60.00
2019-06-20T04:59:53.612Z,60.00
2019-06-20T05:00:53.612Z,60.00
2019-06-20T05:01:53.940Z,60.00
2019-06-20T05:02:53.590Z,64.00
2019-06-20T05:03:53.610Z,64.00
2019-06-20T05:04:53.563Z,68.00
2019-06-20T05:05:53.578Z,68.00
2019-06-20T05:06:53.543Z,68.00
2019-06-20T05:07:53.527Z,68.00
2019-06-20T05:08:53.523Z,72.00
2019-06-20T05:09:53.521Z,76.00
2019-06-20T05:10:53.511Z,84.00
2019-06-20T05:11:53.518Z,92.00
2019-06-20T05:12:56.004Z,96.00
2019-06-20T05:13:53.465Z,100.00
2019-06-20T05:14:53.473Z,104.00
2019-06-20T05:15:53.598Z,104.00
2019-06-20T05:16:53.445Z,108.00
2019-06-20T05:17:53.429Z,104.00
2019-06-20T05:18:53.413Z,108.00
2019-06-20T05:19:53.411Z,108.00
2019-06-20T05:20:53.409Z,104.00
2019-06-20T05:21:53.385Z,100.00
2019-06-20T05:22:53.374Z,92.00
2019-06-20T05:23:53.382Z,88.00
2019-06-20T05:24:53.347Z,84.00
2019-06-20T05:25:53.369Z,80.00
2019-06-20T05:26:53.373Z,76.00
2019-06-20T05:27:53.317Z,76.00
2019-06-20T05:28:53.308Z,76.00
2019-06-20T05:29:53.353Z,72.00
2019-06-20T05:30:53.304Z,68.00
2019-06-20T05:31:53.281Z,64.00
2019-06-20T05:32:53.269Z,64.00
2019-06-20T05:33:53.270Z,60.00
2019-06-20T05:34:53.318Z,60.00
2019-06-20T05:35:53.278Z,56.00
2019-06-20T05:36:53.239Z,56.00
2019-06-20T05:37:53.243Z,52.00
2019-06-20T05:38:53.198Z,56.00
2019-06-20T05:39:53.212Z,52.00
2019-06-20T05:40:53.188Z,56.00
2019-06-20T05:41:53.180Z,60.00
2019-06-20T05:42:53.170Z,60.00
2019-06-20T05:43:53.202Z,60.00
2019-06-20T05:44:53.159Z,60.00
2019-06-20T05:46:08.404Z,64.00
2019-06-20T05:47:08.535Z,64.00
2019-06-20T05:47:53.108Z,68.00
2019-06-20T05:48:53.105Z,72.00
2019-06-20T05:49:53.081Z,76.00
2019-06-20T05:50:53.091Z,80.00
2019-06-20T05:51:53.064Z,84.00
2019-06-20T05:52:53.057Z,84.00
2019-06-20T05:53:53.046Z,84.00
2019-06-20T05:54:53.036Z,84.00
2019-06-20T05:55:53.055Z,88.00
2019-06-20T05:56:53.021Z,88.00
2019-06-20T05:57:53.001Z,88.00
2019-06-20T05:58:53.016Z,88.00
2019-06-20T05:59:52.982Z,92.00
2019-06-20T06:00:53.726Z,92.00
2019-06-20T06:01:56.070Z,96.00
2019-06-20T06:02:53.094Z,96.00
2019-06-20T06:03:52.962Z,96.00
2019-06-20T06:04:52.927Z,92.00
2019-06-20T06:05:52.921Z,96.00
2019-06-20T06:06:52.917Z,96.00
2019-06-20T06:07:52.903Z,92.00
2019-06-20T06:08:52.894Z,100.00
2019-06-20T06:09:52.879Z,104.00
2019-06-20T06:10:52.874Z,108.00
2019-06-20T06:11:52.863Z,116.00
2019-06-20T06:12:52.864Z,116.00
2019-06-20T06:13:53.364Z,116.00
2019-06-20T06:14:52.884Z,116.00
2019-06-20T06:15:52.814Z,116.00
2019-06-20T06:16:52.804Z,120.00
2019-06-20T06:17:52.787Z,120.00
2019-06-20T06:18:52.796Z,120.00
2019-06-20T06:19:52.800Z,124.00
2019-06-20T06:20:52.771Z,124.00
2019-06-20T06:21:52.753Z,128.00
2019-06-20T06:22:52.749Z,132.00
2019-06-20T06:23:52.830Z,132.00
2019-06-20T06:24:52.722Z,136.00
2019-06-20T06:25:52.741Z,140.00
2019-06-20T06:26:52.722Z,148.00
2019-06-20T06:27:52.686Z,152.00
2019-06-20T06:28:52.669Z,156.00
2019-06-20T06:29:52.663Z,164.00
2019-06-20T06:30:52.650Z,164.00
2019-06-20T06:31:52.664Z,164.00
2019-06-20T06:32:52.642Z,160.00
2019-06-20T06:33:52.645Z,148.00
2019-06-20T06:34:52.606Z,144.00
2019-06-20T06:35:52.601Z,144.00
2019-06-20T06:36:52.644Z,148.00
2019-06-20T06:37:52.591Z,156.00
2019-06-20T06:38:52.568Z,156.00
2019-06-20T06:39:52.549Z,160.00
2019-06-20T06:40:52.553Z,160.00
2019-06-20T06:41:52.547Z,160.00
2019-06-20T06:42:52.517Z,160.00
2019-06-20T06:43:52.519Z,156.00
2019-06-20T06:44:52.495Z,156.00
2019-06-20T06:45:52.564Z,160.00
2019-06-20T06:46:57.507Z,156.00
2019-06-20T06:47:52.523Z,156.00
2019-06-20T06:48:52.453Z,152.00
2019-06-20T06:49:52.486Z,156.00
2019-06-20T06:50:52.437Z,168.00
2019-06-20T06:51:52.457Z,168.00
2019-06-20T06:52:52.416Z,172.00
2019-06-20T06:53:52.410Z,172.00
2019-06-20T06:54:52.389Z,176.00
2019-06-20T06:55:52.379Z,172.00
2019-06-20T06:56:52.389Z,172.00
2019-06-20T06:57:52.365Z,168.00
2019-06-20T06:58:52.403Z,168.00
2019-06-20T06:59:52.343Z,168.00
2019-06-20T07:00:52.331Z,172.00
2019-06-20T07:01:52.356Z,180.00
2019-06-20T07:02:52.339Z,172.00
2019-06-20T07:03:52.301Z,168.00
2019-06-20T07:04:52.294Z,168.00
2019-06-20T07:05:52.351Z,172.00
2019-06-20T07:06:52.280Z,172.00
2019-06-20T07:07:52.784Z,184.00
2019-06-20T07:08:52.310Z,188.00
2019-06-20T07:09:52.280Z,188.00
2019-06-20T07:10:52.232Z,184.00
2019-06-20T07:11:52.218Z,188.00
2019-06-20T07:12:52.205Z,192.00
2019-06-20T07:13:52.267Z,192.00
2019-06-20T07:14:52.180Z,208.00
2019-06-20T07:15:52.182Z,208.00
2019-06-20T07:17:00.268Z,200.00
2019-06-20T07:17:52.171Z,196.00
2019-06-20T07:18:52.145Z,196.00
2019-06-20T07:19:52.199Z,200.00
2019-06-20T07:20:52.116Z,196.00
2019-06-20T07:21:52.156Z,200.00
2019-06-20T07:22:52.104Z,192.00
2019-06-20T07:23:52.123Z,192.00
2019-06-20T07:24:52.127Z,184.00
2019-06-20T07:25:52.151Z,180.00
2019-06-20T07:26:52.086Z,168.00
2019-06-20T07:27:52.047Z,164.00
2019-06-20T07:28:52.027Z,164.00
2019-06-20T07:29:52.025Z,164.00
2019-06-20T07:30:52.017Z,164.00
2019-06-20T07:31:52.007Z,168.00
2019-06-20T07:32:52.001Z,160.00
2019-06-20T07:33:52.016Z,160.00
2019-06-20T07:34:51.977Z,164.00
2019-06-20T07:35:51.954Z,160.00
2019-06-20T07:36:51.977Z,132.00
2019-06-20T07:37:51.950Z,144.00
2019-06-20T07:38:51.924Z,148.00
2019-06-20T07:39:52.022Z,148.00
2019-06-20T07:40:51.913Z,148.00
2019-06-20T07:41:51.923Z,148.00
2019-06-20T07:42:51.880Z,152.00
2019-06-20T07:43:51.878Z,156.00
2019-06-20T07:44:51.858Z,156.00
2019-06-20T07:46:01.975Z,156.00
2019-06-20T07:46:51.849Z,152.00
2019-06-20T07:47:51.844Z,144.00
2019-06-20T07:48:51.832Z,156.00
2019-06-20T07:49:51.819Z,160.00
2019-06-20T07:50:51.809Z,164.00
2019-06-20T07:51:51.803Z,156.00
2019-06-20T07:53:01.477Z,144.00
2019-06-20T07:53:51.821Z,148.00
2019-06-20T07:54:51.810Z,148.00
2019-06-20T07:55:51.756Z,156.00
2019-06-20T07:56:51.850Z,152.00
2019-06-20T07:57:51.739Z,164.00
2019-06-20T07:58:51.755Z,152.00
2019-06-20T07:59:51.827Z,156.00
2019-06-20T08:00:51.751Z,160.00
2019-06-20T08:01:51.683Z,164.00
2019-06-20T08:02:51.775Z,184.00
2019-06-20T08:03:51.676Z,188.00
2019-06-20T08:04:51.651Z,188.00
2019-06-20T08:05:51.656Z,192.00
2019-06-20T08:06:51.620Z,192.00
2019-06-20T08:07:51.686Z,184.00
2019-06-20T08:08:51.608Z,192.00
2019-06-20T08:09:51.664Z,184.00
2019-06-20T08:10:51.603Z,184.00
2019-06-20T08:11:51.572Z,200.00
2019-06-20T08:12:51.611Z,176.00
2019-06-20T08:13:51.589Z,168.00
2019-06-20T08:14:51.548Z,176.00
2019-06-20T08:15:51.539Z,168.00
2019-06-20T08:16:51.531Z,176.00
2019-06-20T08:17:51.610Z,156.00
2019-06-20T08:18:51.500Z,156.00
2019-06-20T08:19:51.503Z,156.00
2019-06-20T08:20:51.475Z,160.00
2019-06-20T08:21:51.466Z,148.00
2019-06-20T08:22:51.471Z,144.00
2019-06-20T08:23:51.466Z,144.00
2019-06-20T08:24:53.211Z,152.00
2019-06-20T08:25:51.420Z,168.00
2019-06-20T08:26:51.420Z,180.00
2019-06-20T08:27:51.467Z,184.00
2019-06-20T08:29:07.323Z,168.00
2019-06-20T08:29:51.405Z,144.00
2019-06-20T08:30:51.382Z,152.00
2019-06-20T08:31:51.376Z,176.00
2019-06-20T08:32:51.456Z,168.00
2019-06-20T08:33:51.400Z,168.00
2019-06-20T08:34:51.335Z,172.00
2019-06-20T08:35:51.354Z,172.00
2019-06-20T08:36:51.311Z,176.00
2019-06-20T08:37:51.325Z,172.00
2019-06-20T08:38:51.307Z,172.00
2019-06-20T08:39:51.290Z,176.00
2019-06-20T08:40:51.272Z,172.00
2019-06-20T08:41:51.259Z,168.00
2019-06-20T08:42:51.294Z,172.00
2019-06-20T08:43:51.282Z,168.00
2019-06-20T08:44:51.236Z,176.00
2019-06-20T08:45:51.236Z,176.00
2019-06-20T08:46:51.230Z,164.00
2019-06-20T08:47:51.226Z,172.00
2019-06-20T08:48:51.623Z,184.00
2019-06-20T08:49:51.189Z,184.00
2019-06-20T08:50:51.167Z,192.00
2019-06-20T08:51:51.170Z,196.00
2019-06-20T08:52:51.167Z,192.00
2019-06-20T08:53:51.176Z,184.00
2019-06-20T08:54:51.114Z,184.00
2019-06-20T08:55:51.105Z,196.00
2019-06-20T08:56:51.097Z,200.00
2019-06-20T08:57:51.124Z,200.00
2019-06-20T08:58:51.125Z,200.00
2019-06-20T08:59:51.118Z,204.00
2019-06-20T09:00:51.079Z,204.00
2019-06-20T09:01:51.065Z,204.00
2019-06-20T09:02:51.044Z,208.00
2019-06-20T09:03:51.087Z,212.00
2019-06-20T09:04:51.040Z,208.00
2019-06-20T09:05:51.004Z,172.00
2019-06-20T09:06:51.005Z,172.00
2019-06-20T09:07:51.048Z,172.00
2019-06-20T09:08:51.031Z,176.00
2019-06-20T09:09:51.057Z,172.00
2019-06-20T09:10:50.953Z,220.00
2019-06-20T09:11:50.960Z,200.00
2019-06-20T09:12:50.937Z,212.00
2019-06-20T09:13:50.990Z,228.00
2019-06-20T09:14:50.900Z,228.00
2019-06-20T09:15:50.898Z,228.00
2019-06-20T09:16:52.275Z,228.00
2019-06-20T09:17:52.952Z,228.00
2019-06-20T09:18:53.292Z,228.00
2019-06-20T09:19:51.717Z,224.00
2019-06-20T09:20:52.748Z,216.00
2019-06-20T09:21:52.548Z,176.00
2019-06-20T09:22:50.831Z,200.00
2019-06-20T09:23:52.368Z,148.00
2019-06-20T09:24:52.028Z,144.00
2019-06-20T09:25:50.878Z,156.00
2019-06-20T09:26:51.146Z,220.00
2019-06-20T09:27:52.631Z,168.00
2019-06-20T09:28:52.215Z,172.00
2019-06-20T09:29:51.562Z,224.00
2019-06-20T09:30:52.233Z,240.00
2019-06-20T09:31:52.467Z,236.00
2019-06-20T09:32:52.197Z,228.00
2019-06-20T09:33:52.180Z,220.00
2019-06-20T09:34:51.832Z,220.00
2019-06-20T09:35:52.157Z,224.00
2019-06-20T09:36:52.135Z,216.00
2019-06-20T09:37:50.896Z,204.00
2019-06-20T09:38:52.077Z,164.00
2019-06-20T09:39:51.726Z,164.00
2019-06-20T09:40:51.890Z,212.00
2019-06-20T09:41:51.614Z,184.00
2019-06-20T09:42:51.693Z,256.00
2019-06-20T09:43:51.608Z,236.00
2019-06-20T09:44:52.353Z,192.00
2019-06-20T09:45:51.376Z,188.00
2019-06-20T09:46:51.173Z,188.00
2019-06-20T09:47:52.055Z,196.00
2019-06-20T09:48:51.043Z,236.00
2019-06-20T09:49:52.467Z,224.00
2019-06-20T09:50:51.740Z,208.00
2019-06-20T09:51:50.524Z,204.00
2019-06-20T09:52:51.586Z,208.00
2019-06-20T09:53:51.786Z,240.00
2019-06-20T09:54:51.643Z,212.00
2019-06-20T09:55:51.662Z,200.00
2019-06-20T09:56:53.486Z,188.00
2019-06-20T09:57:51.913Z,188.00
2019-06-20T09:58:51.134Z,212.00
2019-06-20T10:00:03.314Z,204.00
2019-06-20T10:00:50.838Z,204.00
2019-06-20T10:01:51.448Z,200.00
2019-06-20T10:02:52.113Z,200.00
2019-06-20T10:03:50.597Z,204.00
2019-06-20T10:04:50.713Z,208.00
2019-06-20T10:05:50.720Z,236.00
2019-06-20T10:06:50.414Z,220.00
2019-06-20T10:07:50.410Z,244.00
2019-06-20T10:08:50.385Z,200.00
2019-06-20T10:09:50.328Z,192.00
2019-06-20T10:10:50.711Z,184.00
2019-06-20T10:11:50.310Z,164.00
2019-06-20T10:12:51.643Z,152.00
2019-06-20T10:13:50.298Z,144.00
2019-06-20T10:14:51.562Z,140.00
2019-06-20T10:15:51.485Z,144.00
2019-06-20T10:16:52.250Z,156.00
2019-06-20T10:17:50.256Z,172.00
2019-06-20T10:18:50.274Z,188.00
2019-06-20T10:19:50.241Z,204.00
2019-06-20T10:20:51.158Z,220.00
2019-06-20T10:21:50.255Z,220.00
2019-06-20T10:22:50.940Z,216.00
2019-06-20T10:23:50.191Z,216.00
2019-06-20T10:24:51.235Z,236.00
2019-06-20T10:25:51.483Z,224.00
2019-06-20T10:26:51.386Z,244.00
2019-06-20T10:27:51.410Z,260.00
2019-06-20T10:28:51.423Z,320.00
2019-06-20T10:29:51.085Z,308.00
2019-06-20T10:30:51.124Z,320.00
2019-06-20T10:31:50.817Z,324.00
2019-06-20T10:32:51.009Z,324.00
2019-06-20T10:33:50.912Z,320.00
2019-06-20T10:34:50.617Z,272.00
2019-06-20T10:35:50.361Z,268.00
2019-06-20T10:36:50.183Z,272.00
2019-06-20T10:37:50.322Z,240.00
2019-06-20T10:38:50.352Z,176.00
2019-06-20T10:39:50.054Z,176.00
2019-06-20T10:40:49.992Z,180.00
2019-06-20T10:41:50.283Z,192.00
2019-06-20T10:42:50.318Z,204.00
2019-06-20T10:43:49.975Z,212.00
2019-06-20T10:44:50.000Z,220.00
2019-06-20T10:45:49.958Z,232.00
2019-06-20T10:46:51.336Z,236.00
2019-06-20T10:47:50.963Z,240.00
2019-06-20T10:48:50.105Z,224.00
2019-06-20T10:49:50.406Z,216.00
2019-06-20T10:50:49.896Z,192.00
2019-06-20T10:51:49.893Z,176.00
2019-06-20T10:52:50.167Z,176.00
2019-06-20T10:53:51.360Z,176.00
2019-06-20T10:54:49.855Z,180.00
2019-06-20T10:55:51.122Z,180.00
2019-06-20T10:56:51.007Z,192.00
2019-06-20T10:57:50.424Z,204.00
2019-06-20T10:58:50.721Z,212.00
2019-06-20T10:59:50.880Z,220.00
2019-06-20T11:00:50.404Z,240.00
2019-06-20T11:01:50.683Z,268.00
2019-06-20T11:02:51.213Z,284.00
2019-06-20T11:03:50.023Z,296.00
2019-06-20T11:04:49.843Z,308.00
2019-06-20T11:05:49.906Z,316.00
2019-06-20T11:06:49.775Z,320.00
2019-06-20T11:07:50.032Z,320.00
2019-06-20T11:08:49.702Z,328.00
2019-06-20T11:09:49.700Z,336.00
2019-06-20T11:10:49.738Z,336.00
2019-06-20T11:11:49.672Z,296.00
2019-06-20T11:12:54.914Z,276.00
2019-06-20T11:13:49.643Z,244.00
2019-06-20T11:14:49.653Z,208.00
2019-06-20T11:15:49.709Z,196.00
2019-06-20T11:16:49.664Z,196.00
2019-06-20T11:17:49.593Z,204.00
2019-06-20T11:18:49.582Z,204.00
2019-06-20T11:19:49.621Z,216.00
2019-06-20T11:20:49.587Z,208.00
2019-06-20T11:21:49.607Z,216.00
2019-06-20T11:22:49.547Z,212.00
2019-06-20T11:23:49.535Z,192.00
2019-06-20T11:24:49.533Z,184.00
2019-06-20T11:25:49.520Z,172.00
2019-06-20T11:26:49.537Z,160.00
2019-06-20T11:27:49.562Z,140.00
2019-06-20T11:28:49.563Z,124.00
2019-06-20T11:29:49.571Z,108.00
2019-06-20T11:30:58.159Z,100.00
2019-06-20T11:31:49.706Z,88.00
2019-06-20T11:32:49.439Z,76.00
2019-06-20T11:33:49.434Z,64.00
2019-06-20T11:34:49.493Z,52.00
2019-06-20T11:35:49.410Z,44.00
2019-06-20T11:36:49.413Z,40.00
2019-06-20T11:37:49.404Z,40.00
2019-06-20T11:38:49.376Z,36.00
2019-06-20T11:39:51.294Z,36.00
2019-06-20T11:40:49.362Z,32.00
2019-06-20T11:41:49.350Z,36.00
2019-06-20T11:42:49.331Z,36.00
2019-06-20T11:43:49.344Z,36.00
2019-06-20T11:44:49.318Z,40.00
2019-06-20T11:45:49.315Z,40.00
2019-06-20T11:46:49.291Z,48.00
2019-06-20T11:47:49.294Z,52.00
2019-06-20T11:48:49.284Z,60.00
2019-06-20T11:49:49.293Z,68.00
2019-06-20T11:50:49.251Z,84.00
2019-06-20T11:51:49.303Z,116.00
2019-06-20T11:52:49.224Z,148.00
2019-06-20T11:53:49.215Z,176.00
2019-06-20T11:54:49.328Z,200.00
2019-06-20T11:55:49.196Z,212.00
2019-06-20T11:56:49.180Z,224.00
2019-06-20T11:57:49.238Z,228.00
2019-06-20T11:58:49.162Z,228.00
2019-06-20T11:59:49.165Z,228.00
2019-06-20T12:01:03.094Z,236.00
2019-06-20T12:01:49.227Z,240.00
2019-06-20T12:02:50.273Z,252.00
2019-06-20T12:03:49.135Z,272.00
2019-06-20T12:04:49.165Z,288.00
2019-06-20T12:05:49.791Z,308.00
2019-06-20T12:06:49.342Z,296.00
2019-06-20T12:07:49.986Z,288.00
2019-06-20T12:08:49.238Z,280.00
2019-06-20T12:09:49.232Z,280.00
2019-06-20T12:10:49.443Z,280.00
2019-06-20T12:11:49.030Z,288.00
2019-06-20T12:12:49.285Z,300.00
2019-06-20T12:13:49.015Z,312.00
2019-06-20T12:14:48.994Z,316.00
2019-06-20T12:15:49.130Z,316.00
2019-06-20T12:16:48.976Z,308.00
2019-06-20T12:17:49.448Z,268.00
2019-06-20T12:18:49.469Z,236.00
2019-06-20T12:19:48.947Z,212.00
2019-06-20T12:20:50.465Z,196.00
2019-06-20T12:21:49.147Z,180.00
2019-06-20T12:22:50.449Z,164.00
2019-06-20T12:23:49.064Z,148.00
2019-06-20T12:24:48.960Z,144.00
2019-06-20T12:25:48.925Z,136.00
2019-06-20T12:26:48.867Z,136.00
2019-06-20T12:27:49.760Z,144.00
2019-06-20T12:28:48.854Z,152.00
2019-06-20T12:29:49.340Z,168.00
2019-06-20T12:30:48.829Z,180.00
2019-06-20T12:31:48.815Z,192.00
2019-06-20T12:32:49.326Z,196.00
2019-06-20T12:33:49.537Z,196.00
2019-06-20T12:34:49.504Z,192.00
2019-06-20T12:35:48.781Z,180.00
2019-06-20T12:36:50.029Z,168.00
2019-06-20T12:37:50.058Z,160.00
2019-06-20T12:38:48.739Z,156.00
2019-06-20T12:39:48.767Z,148.00
2019-06-20T12:40:48.730Z,148.00
2019-06-20T12:41:50.085Z,148.00
2019-06-20T12:42:49.298Z,144.00
2019-06-20T12:43:48.735Z,144.00
2019-06-20T12:44:48.670Z,136.00
2019-06-20T12:45:49.530Z,136.00
2019-06-20T12:46:49.104Z,136.00
2019-06-20T12:47:49.994Z,132.00
2019-06-20T12:48:49.194Z,132.00